Time;durP1;ratioP1;P1;durP2;ratioP2;P2;SDS_P1;SDS_P2;PMS_P1;PMS_P2;Temp;Humidity;BMP_temperature;BMP_pressure;BME280_temperature;BME280_humidity;BME280_pressure;Samples;Min_cycle;Max_cycle;Signal;HPM_P1;HPM_P2
2022/03/02 00:00:52;;;;;;;33.03;17.47;;;;;;;0.43;88.10;95159.81;5058146;28;20205;-88
2022/03/02 00:03:20;;;;;;;42.67;24.57;;;;;;;0.44;87.94;95171.66;5059936;28;20225;-89
2022/03/02 00:05:48;;;;;;;37.70;21.20;;;;;;;0.47;87.92;95170.56;5050607;28;20264;-90
2022/03/02 00:08:16;;;;;;;37.23;19.83;;;;;;;0.24;88.57;95165.03;5051497;28;20227;-90
2022/03/02 00:10:43;;;;;;;37.83;21.47;;;;;;;0.22;89.53;95161.03;5050745;28;20221;-91
2022/03/02 00:13:11;;;;;;;40.77;21.13;;;;;;;0.28;89.29;95145.94;5055504;28;20315;-91
2022/03/02 00:15:41;;;;;;;42.80;20.13;;;;;;;0.44;89.32;95163.16;5054962;28;20212;-90
2022/03/02 00:18:09;;;;;;;43.87;21.03;;;;;;;0.31;89.79;95155.88;5049153;28;20324;-89
2022/03/02 00:20:37;;;;;;;38.10;19.70;;;;;;;0.27;90.25;95146.06;5054125;28;20212;-86
2022/03/02 00:23:06;;;;;;;37.43;19.87;;;;;;;0.30;89.87;95140.66;5054725;28;20202;-90
2022/03/02 00:25:34;;;;;;;34.80;18.63;;;;;;;0.35;90.23;95135.91;5049346;28;20201;-90
2022/03/02 00:28:02;;;;;;;35.87;18.03;;;;;;;0.41;90.50;95140.44;5057746;28;20257;-91
2022/03/02 00:30:31;;;;;;;35.90;19.07;;;;;;;0.34;89.67;95137.69;5055524;28;20691;-92
2022/03/02 00:33:00;;;;;;;40.60;20.87;;;;;;;0.46;88.69;95136.50;5055437;28;20232;-91
2022/03/02 00:35:29;;;;;;;40.03;21.63;;;;;;;0.49;88.60;95132.91;5054240;28;20218;-87
2022/03/02 00:37:57;;;;;;;37.87;19.93;;;;;;;0.49;88.56;95133.66;5054497;28;20199;-87
2022/03/02 00:40:25;;;;;;;37.10;20.63;;;;;;;0.37;89.13;95131.47;5054461;28;20275;-92
2022/03/02 00:42:53;;;;;;;39.80;20.53;;;;;;;0.32;89.48;95131.09;5056019;28;20202;-90
2022/03/02 00:45:25;;;;;;;39.50;20.10;;;;;;;0.25;90.00;95117.28;5047738;28;20313;-89
2022/03/02 00:47:53;;;;;;;31.60;17.60;;;;;;;0.37;89.14;95122.06;5054158;28;20210;-90
2022/03/02 00:50:24;;;;;;;30.70;16.27;;;;;;;0.45;87.29;95121.34;5048299;28;20218;-87
2022/03/02 00:52:52;;;;;;;30.73;16.80;;;;;;;0.34;87.29;95112.13;5052523;28;20214;-89
2022/03/02 00:55:21;;;;;;;30.33;17.67;;;;;;;0.40;87.04;95118.41;5053818;28;20652;-88
2022/03/02 00:57:50;;;;;;;37.53;20.53;;;;;;;0.38;87.35;95102.41;5052998;28;20627;-89
2022/03/02 01:00:19;;;;;;;42.00;22.30;;;;;;;0.40;87.87;95103.88;5052819;28;20618;-88
2022/03/02 01:02:49;;;;;;;45.90;22.73;;;;;;;0.39;88.10;95104.03;5052464;28;20616;-89
2022/03/02 01:05:18;;;;;;;39.17;21.37;;;;;;;0.21;88.95;95100.63;5046472;28;20266;-89
2022/03/02 01:07:48;;;;;;;40.23;21.27;;;;;;;0.23;89.04;95098.75;5040860;28;20215;-88
2022/03/02 01:10:17;;;;;;;30.83;17.47;;;;;;;0.26;87.74;95098.47;5034007;28;20202;-87
2022/03/02 01:12:46;;;;;;;31.93;17.97;;;;;;;0.14;86.64;95091.94;5052130;28;20705;-87
2022/03/02 01:15:15;;;;;;;33.07;18.07;;;;;;;0.24;86.87;95093.50;5052675;28;20285;-88
2022/03/02 01:17:45;;;;;;;29.47;16.37;;;;;;;0.23;86.48;95088.53;5053121;28;20221;-86
2022/03/02 01:20:14;;;;;;;29.83;16.30;;;;;;;0.03;85.65;95067.38;5051557;28;20202;-87
2022/03/02 01:22:44;;;;;;;29.50;14.80;;;;;;;0.05;86.07;95074.91;5052456;28;20256;-87
2022/03/02 01:25:15;;;;;;;25.90;14.47;;;;;;;0.10;85.19;95088.06;5052613;28;20731;-87
2022/03/02 01:27:50;;;;;;;28.60;15.20;;;;;;;0.11;85.36;95095.59;5055073;28;20314;-87
2022/03/02 01:30:24;;;;;;;27.00;14.60;;;;;;;0.04;85.44;95080.97;5057625;28;20202;-87
2022/03/02 01:32:53;;;;;;;31.83;17.47;;;;;;;0.12;84.94;95083.59;5057340;28;20224;-88
2022/03/02 01:35:30;;;;;;;29.70;16.67;;;;;;;0.13;85.02;95078.38;5057432;28;20684;-90
2022/03/02 01:38:07;;;;;;;31.53;16.60;;;;;;;0.02;84.30;95067.53;5059048;28;20187;-94
2022/03/02 01:40:41;;;;;;;29.97;16.23;;;;;;;0.08;84.57;95082.31;5060066;28;20198;-92
2022/03/02 01:43:12;;;;;;;37.03;19.23;;;;;;;-0.02;84.65;95067.03;5043071;28;20245;-93
2022/03/02 01:45:49;;;;;;;32.00;17.07;;;;;;;-0.05;85.27;95080.06;5060016;28;20197;-93
2022/03/02 01:48:23;;;;;;;40.43;19.10;;;;;;;-0.14;84.81;95073.25;5059962;28;20256;-95
2022/03/02 01:50:50;;;;;;;43.63;19.80;;;;;;;-0.22;85.52;95057.84;5058646;28;20609;-94
2022/03/02 01:53:18;;;;;;;36.67;19.43;;;;;;;-0.09;85.40;95066.00;5059760;28;20194;-91
2022/03/02 01:55:48;;;;;;;37.47;19.23;;;;;;;-0.15;84.92;95069.94;5058671;28;20198;-90
2022/03/02 01:58:19;;;;;;;40.63;18.47;;;;;;;-0.12;85.25;95064.53;5073031;28;20209;-89
2022/03/02 02:00:48;;;;;;;28.77;15.67;;;;;;;-0.13;84.92;95068.03;5057773;28;20207;-89
2022/03/02 02:03:16;;;;;;;25.53;13.90;;;;;;;-0.12;84.11;95054.31;5058017;28;20815;-89
2022/03/02 02:05:44;;;;;;;29.83;13.93;;;;;;;-0.11;84.13;95057.66;5057459;28;20225;-90
2022/03/02 02:08:13;;;;;;;28.37;13.67;;;;;;;-0.17;84.43;95048.00;5058394;28;20226;-89
2022/03/02 02:10:42;;;;;;;21.10;12.63;;;;;;;-0.18;84.04;95049.78;5059181;28;20206;-89
2022/03/02 02:13:14;;;;;;;24.67;13.80;;;;;;;-0.23;84.09;95049.38;5059316;28;20249;-89
2022/03/02 02:15:42;;;;;;;21.43;12.73;;;;;;;-0.22;84.64;95045.91;5060018;28;20202;-89
2022/03/02 02:18:10;;;;;;;22.13;12.47;;;;;;;-0.23;84.16;95048.63;5057790;28;20246;-87
2022/03/02 02:20:40;;;;;;;22.30;13.60;;;;;;;-0.25;84.31;95037.72;5057251;28;20289;-88
2022/03/02 02:23:09;;;;;;;24.50;14.13;;;;;;;-0.18;84.38;95046.44;5057355;28;20201;-90
2022/03/02 02:25:37;;;;;;;27.07;14.77;;;;;;;-0.20;84.38;95038.09;5056954;28;20209;-91
2022/03/02 02:28:04;;;;;;;36.17;18.13;;;;;;;-0.15;84.43;95046.16;5056296;28;20226;-88
2022/03/02 02:30:32;;;;;;;37.43;18.70;;;;;;;-0.11;84.24;95043.16;5056592;28;20213;-90
2022/03/02 02:33:01;;;;;;;33.73;17.63;;;;;;;-0.07;83.61;95052.13;5056758;28;20205;-85
2022/03/02 02:35:28;;;;;;;29.03;14.97;;;;;;;-0.10;83.88;95043.97;5055685;28;20242;-85
2022/03/02 02:38:00;;;;;;;24.87;14.57;;;;;;;-0.15;84.22;95043.59;5051051;28;20668;-85
2022/03/02 02:40:29;;;;;;;28.47;14.43;;;;;;;-0.20;83.92;95048.28;5055038;28;20202;-85
2022/03/02 02:42:58;;;;;;;25.30;13.77;;;;;;;-0.18;84.39;95043.88;5055900;28;20206;-85
2022/03/02 02:45:26;;;;;;;28.70;15.20;;;;;;;-0.20;83.78;95041.44;5055876;28;20210;-85
2022/03/02 02:47:56;;;;;;;29.93;16.13;;;;;;;-0.19;83.95;95045.63;5055262;28;20280;-85
2022/03/02 02:50:26;;;;;;;30.17;16.87;;;;;;;-0.30;84.38;95034.78;5049260;28;20204;-85
2022/03/02 02:52:55;;;;;;;32.30;16.90;;;;;;;-0.32;84.32;95036.69;5049138;28;20666;-84
2022/03/02 02:55:27;;;;;;;24.87;14.90;;;;;;;-0.43;84.25;95039.44;5055426;28;20672;-84
2022/03/02 02:57:56;;;;;;;33.57;16.63;;;;;;;-0.56;84.20;95029.56;5055677;28;20655;-89
2022/03/02 03:00:26;;;;;;;25.70;14.27;;;;;;;-0.56;84.73;95027.00;5050917;28;20190;-91
2022/03/02 03:02:55;;;;;;;27.37;14.57;;;;;;;-0.61;84.99;95031.72;5056389;28;20248;-90
2022/03/02 03:05:26;;;;;;;24.20;13.53;;;;;;;-0.67;84.72;95024.63;5050930;28;20206;-89
2022/03/02 03:07:55;;;;;;;23.17;13.87;;;;;;;-0.54;84.62;95037.84;5057177;28;20797;-91
2022/03/02 03:10:27;;;;;;;25.03;13.87;;;;;;;-0.58;84.14;95032.22;5056456;28;20217;-91
2022/03/02 03:12:56;;;;;;;23.90;12.10;;;;;;;-0.59;84.89;95040.03;5055923;28;20272;-90
2022/03/02 03:15:24;;;;;;;26.27;13.23;;;;;;;-0.72;84.95;95032.69;5056422;28;20209;-89
2022/03/02 03:17:54;;;;;;;22.33;13.17;;;;;;;-0.76;85.55;95041.59;5056009;28;20206;-89
2022/03/02 03:20:25;;;;;;;21.97;12.00;;;;;;;-0.80;85.48;95041.97;5055318;28;20213;-90
2022/03/02 03:22:54;;;;;;;24.93;12.93;;;;;;;-0.82;85.76;95041.34;5056026;28;20198;-90
2022/03/02 03:25:22;;;;;;;24.97;14.03;;;;;;;-0.85;86.48;95032.22;5055376;28;20210;-90
2022/03/02 03:27:53;;;;;;;26.90;13.77;;;;;;;-0.81;86.84;95042.94;5055631;28;20229;-92
2022/03/02 03:30:23;;;;;;;29.20;14.63;;;;;;;-0.89;87.25;95037.72;5049936;28;20294;-92
2022/03/02 03:32:53;;;;;;;25.50;13.00;;;;;;;-0.79;87.89;95038.50;5055815;28;20212;-88
2022/03/02 03:35:23;;;;;;;23.40;12.97;;;;;;;-0.79;88.36;95035.94;5055244;28;20293;-88
2022/03/02 03:37:52;;;;;;;22.47;12.67;;;;;;;-0.77;88.26;95027.22;5054796;28;20252;-88
2022/03/02 03:40:22;;;;;;;18.57;11.40;;;;;;;-0.71;88.95;95030.94;5054092;28;20206;-88
2022/03/02 03:42:53;;;;;;;23.23;13.90;;;;;;;-0.77;90.27;95023.84;5046727;28;20213;-88
2022/03/02 03:45:22;;;;;;;29.40;15.77;;;;;;;-0.94;90.81;95027.94;5054772;28;20210;-87
2022/03/02 03:47:50;;;;;;;23.83;14.07;;;;;;;-1.10;91.81;95027.72;5047327;28;20209;-87
2022/03/02 03:50:19;;;;;;;22.13;11.77;;;;;;;-1.25;92.70;95035.00;5053699;28;20735;-89
2022/03/02 03:52:50;;;;;;;22.90;12.67;;;;;;;-1.39;93.74;95029.53;5054047;28;20202;-88
2022/03/02 03:55:21;;;;;;;18.93;11.60;;;;;;;-1.50;94.95;95030.44;5053967;28;20216;-87
2022/03/02 03:57:49;;;;;;;22.07;11.67;;;;;;;-1.42;95.25;95022.16;5053321;28;20741;-88
2022/03/02 04:00:22;;;;;;;19.00;11.57;;;;;;;-1.26;95.03;95022.38;5047443;28;20209;-88
2022/03/02 04:02:50;;;;;;;18.63;11.47;;;;;;;-1.23;94.59;95024.66;5054203;28;20232;-87
2022/03/02 04:05:18;;;;;;;19.53;10.00;;;;;;;-1.26;94.47;95019.84;5053999;28;20205;-89
2022/03/02 04:07:47;;;;;;;19.93;12.17;;;;;;;-1.40;95.34;95013.44;5054134;28;20191;-89
2022/03/02 04:10:15;;;;;;;21.23;12.30;;;;;;;-1.44;95.74;95006.97;5054219;28;20589;-89
2022/03/02 04:12:43;;;;;;;21.33;12.03;;;;;;;-1.38;96.07;95011.53;5053482;28;20272;-87
2022/03/02 04:15:13;;;;;;;23.97;12.90;;;;;;;-1.19;95.66;95015.81;5046185;28;20206;-87
2022/03/02 04:17:44;;;;;;;21.30;11.67;;;;;;;-1.21;95.11;95018.47;5042583;28;20202;-88
2022/03/02 04:20:13;;;;;;;24.10;12.73;;;;;;;-1.06;95.29;95021.41;5053435;28;20205;-87
2022/03/02 04:22:40;;;;;;;20.33;12.23;;;;;;;-0.87;95.06;95013.69;5054345;28;20198;-89
2022/03/02 04:25:10;;;;;;;22.43;12.03;;;;;;;-0.95;94.54;95012.78;5054009;28;20220;-89
2022/03/02 04:27:38;;;;;;;21.57;11.43;;;;;;;-1.05;95.17;95015.38;5047353;28;20224;-87
2022/03/02 04:30:07;;;;;;;20.40;11.83;;;;;;;-1.17;95.69;95007.06;5053731;28;20256;-88
2022/03/02 04:32:37;;;;;;;22.40;13.33;;;;;;;-1.10;96.11;95012.44;5053835;28;20224;-90
2022/03/02 04:35:10;;;;;;;27.03;14.33;;;;;;;-0.99;95.62;95014.81;5054103;28;20205;-88
2022/03/02 04:37:39;;;;;;;29.13;15.43;;;;;;;-0.99;95.71;95014.81;5053793;28;20202;-88
2022/03/02 04:40:11;;;;;;;28.80;16.13;;;;;;;-1.05;96.37;95012.00;5039477;28;20586;-86
2022/03/02 04:42:40;;;;;;;36.90;18.13;;;;;;;-0.98;96.65;95015.63;5053014;28;20205;-86
2022/03/02 04:45:09;;;;;;;35.73;18.00;;;;;;;-0.98;96.82;95021.50;5052933;28;20202;-85
2022/03/02 04:47:37;;;;;;;43.73;20.73;;;;;;;-0.91;96.87;95007.25;5053385;28;20561;-86
2022/03/02 04:50:08;;;;;;;35.40;17.73;;;;;;;-0.85;96.89;95013.56;5053769;28;20226;-86
2022/03/02 04:52:36;;;;;;;35.70;18.10;;;;;;;-0.93;97.17;95000.69;5045864;28;20204;-86
2022/03/02 04:55:07;;;;;;;33.07;18.03;;;;;;;-0.89;97.15;95004.56;5059944;28;20193;-85
2022/03/02 04:57:35;;;;;;;34.53;17.33;;;;;;;-0.85;97.63;95005.91;5061336;28;20204;-86
2022/03/02 05:00:04;;;;;;;28.10;14.83;;;;;;;-0.84;97.45;94999.88;5047190;28;20289;-92
2022/03/02 05:02:32;;;;;;;36.47;19.10;;;;;;;-0.87;97.30;94989.94;5053438;28;20202;-71
2022/03/02 05:05:02;;;;;;;48.57;20.63;;;;;;;-0.72;97.17;94996.97;5053782;28;20198;-71
2022/03/02 05:07:32;;;;;;;42.57;19.63;;;;;;;-0.68;97.15;95003.41;5053587;28;20292;-72
2022/03/02 05:10:00;;;;;;;44.53;19.57;;;;;;;-0.72;97.97;95002.06;5052987;28;20257;-73
2022/03/02 05:12:29;;;;;;;45.73;19.77;;;;;;;-0.67;97.46;95002.47;5053389;28;20233;-74
2022/03/02 05:14:57;;;;;;;50.90;21.07;;;;;;;-0.63;98.01;95001.22;5053532;28;20210;-73
2022/03/02 05:17:26;;;;;;;49.57;21.77;;;;;;;-0.60;97.69;95000.16;5053871;28;20206;-74
2022/03/02 05:19:55;;;;;;;42.47;19.27;;;;;;;-0.61;98.59;95001.88;5047002;28;20198;-72
2022/03/02 05:22:29;;;;;;;51.17;22.47;;;;;;;-0.60;98.57;95003.50;5050197;28;20651;-74
2022/03/02 05:24:59;;;;;;;41.40;19.50;;;;;;;-0.61;98.98;94994.22;5052798;28;20202;-74
2022/03/02 05:27:27;;;;;;;35.87;19.10;;;;;;;-0.60;99.87;94992.50;5052518;28;20712;-72
2022/03/02 05:29:55;;;;;;;31.40;17.03;;;;;;;-0.69;100.00;94996.69;5052908;28;20320;-73
2022/03/02 05:32:22;;;;;;;31.37;15.50;;;;;;;-0.69;100.00;94995.88;5052339;28;20653;-73
2022/03/02 05:34:51;;;;;;;36.60;18.17;;;;;;;-0.73;100.00;95002.22;5052855;28;20213;-71
2022/03/02 05:37:19;;;;;;;33.43;16.77;;;;;;;-0.80;100.00;95001.16;5053246;28;20194;-72
2022/03/02 05:39:48;;;;;;;29.93;17.77;;;;;;;-0.86;100.00;94991.53;5052886;28;20198;-72
2022/03/02 05:42:18;;;;;;;31.90;18.37;;;;;;;-0.79;100.00;95002.78;5052564;28;20209;-73
2022/03/02 05:44:46;;;;;;;31.13;16.23;;;;;;;-0.89;100.00;94999.47;5053284;28;20225;-74
2022/03/02 05:47:16;;;;;;;27.93;16.20;;;;;;;-0.91;100.00;94993.69;5052969;28;20232;-72
2022/03/02 05:49:45;;;;;;;31.73;17.97;;;;;;;-0.87;100.00;95003.50;5053171;28;20244;-72
2022/03/02 05:52:31;;;;;;;29.93;16.43;;;;;;;-0.84;100.00;94995.56;5051970;28;20264;-72
2022/03/02 05:55:00;;;;;;;28.07;15.43;;;;;;;-0.78;100.00;94994.22;5053123;28;20206;-74
2022/03/02 05:57:30;;;;;;;30.57;16.00;;;;;;;-0.70;100.00;95000.22;5049232;28;20202;-72
2022/03/02 05:59:58;;;;;;;37.07;18.17;;;;;;;-0.71;100.00;94996.03;5052205;28;20198;-74
2022/03/02 06:02:26;;;;;;;30.50;15.57;;;;;;;-0.69;100.00;94998.44;5052686;28;20202;-73
2022/03/02 06:04:54;;;;;;;25.63;15.03;;;;;;;-0.63;100.00;94995.31;5052833;28;20641;-73
2022/03/02 06:07:22;;;;;;;32.43;17.27;;;;;;;-0.61;100.00;94991.69;5052540;28;20213;-73
2022/03/02 06:09:50;;;;;;;35.13;18.33;;;;;;;-0.49;100.00;95014.47;5052092;28;20700;-72
2022/03/02 06:12:19;;;;;;;34.53;17.13;;;;;;;-0.45;100.00;95013.25;5052062;28;20328;-74
2022/03/02 06:14:49;;;;;;;27.97;15.57;;;;;;;-0.42;100.00;95013.75;5051656;28;20242;-75
2022/03/02 06:17:17;;;;;;;29.90;14.83;;;;;;;-0.50;100.00;95008.56;5051759;28;20201;-78
2022/03/02 06:19:47;;;;;;;30.20;16.67;;;;;;;-0.55;100.00;95018.41;5051456;28;20273;-78
2022/03/02 06:22:17;;;;;;;31.40;17.77;;;;;;;-0.59;100.00;95010.22;5051123;28;20200;-75
2022/03/02 06:24:46;;;;;;;30.87;16.60;;;;;;;-0.59;100.00;95010.22;5051075;28;20221;-72
2022/03/02 06:27:13;;;;;;;32.60;17.77;;;;;;;-0.49;100.00;95004.28;5050720;28;20264;-72
2022/03/02 06:29:42;;;;;;;34.93;18.67;;;;;;;-0.38;100.00;95009.19;5051421;28;20321;-72
2022/03/02 06:32:15;;;;;;;28.00;15.83;;;;;;;-0.40;100.00;95003.41;5051408;28;20209;-71
2022/03/02 06:34:45;;;;;;;34.83;18.90;;;;;;;-0.32;100.00;94999.22;5042057;28;20281;-70
2022/03/02 06:37:17;;;;;;;36.53;19.63;;;;;;;-0.22;100.00;94999.13;5049260;28;20206;-71
2022/03/02 06:40:01;;;;;;;35.43;19.90;;;;;;;-0.11;100.00;94999.75;5051126;28;20236;-72
2022/03/02 06:42:44;;;;;;;38.60;20.63;;;;;;;-0.05;100.00;95000.91;5051980;28;20646;-72
2022/03/02 06:45:28;;;;;;;37.53;21.07;;;;;;;0.06;100.00;94990.47;5052978;28;20689;-73
2022/03/02 06:48:07;;;;;;;38.77;19.67;;;;;;;0.15;100.00;94994.72;5052598;28;20215;-72
2022/03/02 06:50:40;;;;;;;36.43;19.53;;;;;;;0.04;100.00;94997.50;5052828;28;20226;-73
2022/03/02 06:53:14;;;;;;;40.37;21.10;;;;;;;0.03;100.00;95000.19;5052878;28;20233;-72
2022/03/02 06:55:50;;;;;;;36.87;19.77;;;;;;;0.04;100.00;94994.94;5052628;28;20204;-73
2022/03/02 06:58:39;;;;;;;32.50;18.63;;;;;;;-0.01;100.00;94992.81;5052285;28;20202;-74
2022/03/02 07:01:13;;;;;;;32.80;18.60;;;;;;;-0.12;100.00;94993.03;5052388;28;20661;-73
2022/03/02 07:03:47;;;;;;;31.47;17.47;;;;;;;0.00;100.00;94991.09;5052546;28;20238;-72
2022/03/02 07:06:19;;;;;;;33.60;17.73;;;;;;;0.03;100.00;94985.66;5052058;28;20224;-71
2022/03/02 07:08:48;;;;;;;39.13;21.00;;;;;;;0.12;100.00;94987.34;5052018;28;20198;-73
2022/03/02 07:11:18;;;;;;;32.43;17.50;;;;;;;0.22;99.63;94988.06;5052118;28;20212;-72
2022/03/02 07:13:50;;;;;;;36.83;18.77;;;;;;;0.22;99.56;94979.59;5052266;28;20206;-73
2022/03/02 07:16:21;;;;;;;32.23;18.53;;;;;;;0.30;99.22;94980.47;5052575;28;20245;-72
2022/03/02 07:18:53;;;;;;;37.50;19.90;;;;;;;0.38;98.81;94982.28;5051993;28;20198;-73
2022/03/02 07:21:25;;;;;;;38.73;20.00;;;;;;;0.46;97.67;94974.69;5052195;28;20210;-73
2022/03/02 07:23:56;;;;;;;33.13;17.33;;;;;;;0.53;98.14;94985.91;5052104;28;20623;-71
2022/03/02 07:26:29;;;;;;;31.50;16.97;;;;;;;0.55;96.72;94981.44;5051131;28;20279;-73
2022/03/02 07:28:58;;;;;;;34.57;18.17;;;;;;;0.65;96.83;94979.63;5050634;28;20204;-73
2022/03/02 07:31:29;;;;;;;29.97;16.97;;;;;;;0.62;96.58;94974.81;5051424;28;20206;-77
2022/03/02 07:34:03;;;;;;;35.63;18.00;;;;;;;0.65;96.02;94969.41;5066304;28;20211;-80
2022/03/02 07:36:32;;;;;;;38.97;20.17;;;;;;;0.66;96.49;94973.56;5051705;28;20201;-80
2022/03/02 07:39:01;;;;;;;37.03;17.43;;;;;;;0.59;96.55;94967.44;5051029;28;20714;-80
2022/03/02 07:41:30;;;;;;;28.83;15.43;;;;;;;0.44;97.96;94966.34;5045409;28;20237;-80
2022/03/02 07:43:58;;;;;;;39.17;19.20;;;;;;;0.31;98.30;94966.75;5051987;28;20197;-80
2022/03/02 07:46:28;;;;;;;37.80;19.00;;;;;;;0.26;99.66;94952.81;5052529;28;20202;-81
2022/03/02 07:49:02;;;;;;;31.53;17.13;;;;;;;0.38;99.55;94961.84;5052118;28;20730;-82
2022/03/02 07:51:30;;;;;;;32.33;16.20;;;;;;;0.45;100.00;94952.63;5052252;28;20233;-82
2022/03/02 07:54:02;;;;;;;30.17;15.53;;;;;;;0.57;99.64;94959.94;5051767;28;20227;-78
2022/03/02 07:56:33;;;;;;;28.27;15.83;;;;;;;0.73;98.28;94966.88;5040994;28;20266;-79
2022/03/02 07:59:06;;;;;;;26.10;14.30;;;;;;;0.71;97.06;94968.00;5049816;28;20596;-80
2022/03/02 08:01:36;;;;;;;27.97;16.13;;;;;;;0.67;98.27;94964.91;5051795;28;20670;-79
2022/03/02 08:04:10;;;;;;;29.00;17.23;;;;;;;0.70;98.07;94967.19;5045045;28;20312;-79
2022/03/02 08:06:40;;;;;;;26.23;15.90;;;;;;;0.73;98.31;94966.06;5045455;28;20197;-80
2022/03/02 08:09:10;;;;;;;28.93;16.13;;;;;;;0.80;97.45;94967.91;5044632;28;20239;-80
2022/03/02 08:11:40;;;;;;;24.63;14.87;;;;;;;0.78;97.29;94963.88;5045371;28;20210;-79
2022/03/02 08:14:10;;;;;;;27.37;15.37;;;;;;;0.91;96.77;94956.59;5044738;28;20211;-79
2022/03/02 08:16:39;;;;;;;33.97;17.73;;;;;;;0.90;96.60;94957.53;5051432;28;20209;-80
2022/03/02 08:19:11;;;;;;;33.83;18.43;;;;;;;0.99;97.27;94952.31;5050959;28;20288;-80
2022/03/02 08:21:42;;;;;;;25.40;14.53;;;;;;;0.89;96.94;94958.50;5051217;28;20248;-76
2022/03/02 08:24:13;;;;;;;32.27;17.27;;;;;;;0.97;96.80;94958.56;5050793;28;20205;-76
2022/03/02 08:26:42;;;;;;;33.53;17.43;;;;;;;1.01;96.82;94957.31;5051133;28;20205;-75
2022/03/02 08:29:14;;;;;;;35.63;17.93;;;;;;;1.02;97.00;94961.44;5050734;28;20242;-75
2022/03/02 08:31:44;;;;;;;34.13;17.77;;;;;;;1.02;96.63;94954.59;5050713;28;20237;-75
2022/03/02 08:34:15;;;;;;;34.30;18.67;;;;;;;1.13;96.31;94949.19;5050598;28;20220;-77
2022/03/02 08:36:44;;;;;;;42.70;20.80;;;;;;;1.09;95.75;94944.56;5050376;28;20249;-75
2022/03/02 08:39:15;;;;;;;33.30;17.67;;;;;;;0.97;96.14;94943.22;5043908;28;20225;-75
2022/03/02 08:41:43;;;;;;;31.57;17.37;;;;;;;0.76;96.39;94938.47;5050831;28;20240;-76
2022/03/02 08:44:13;;;;;;;32.97;17.17;;;;;;;0.84;97.21;94941.06;5050629;28;20210;-77
2022/03/02 08:46:42;;;;;;;33.63;17.87;;;;;;;0.95;96.00;94930.56;5045747;28;20201;-79
2022/03/02 08:49:11;;;;;;;32.03;18.27;;;;;;;1.12;95.24;94923.78;5048073;28;20209;-77
2022/03/02 08:51:42;;;;;;;32.10;16.70;;;;;;;1.23;94.63;94930.38;5049899;28;20228;-77
2022/03/02 08:54:14;;;;;;;26.70;15.13;;;;;;;1.22;94.20;94931.31;5049831;28;20203;-76
2022/03/02 08:56:42;;;;;;;31.27;17.73;;;;;;;1.14;95.58;94925.22;5050365;28;20205;-76
2022/03/02 08:59:14;;;;;;;32.27;16.87;;;;;;;1.29;96.38;94925.44;5050322;28;20563;-77
2022/03/02 09:01:47;;;;;;;36.00;17.60;;;;;;;1.41;95.22;94921.66;5044091;28;20204;-76
2022/03/02 09:04:16;;;;;;;31.17;17.53;;;;;;;1.60;94.79;94916.25;5049831;28;20709;-77
2022/03/02 09:06:48;;;;;;;33.30;18.43;;;;;;;1.69;93.92;94919.63;5049936;28;20205;-76
2022/03/02 09:09:17;;;;;;;37.50;19.60;;;;;;;1.85;93.42;94914.50;5049858;28;20550;-75
2022/03/02 09:11:46;;;;;;;35.73;18.07;;;;;;;1.90;93.61;94907.19;5043261;28;20239;-76
2022/03/02 09:14:14;;;;;;;31.70;16.37;;;;;;;2.00;91.54;94912.13;5049188;28;20291;-77
2022/03/02 09:16:43;;;;;;;33.20;16.37;;;;;;;1.73;92.18;94895.31;5049469;28;20687;-76
2022/03/02 09:19:11;;;;;;;32.60;17.50;;;;;;;1.92;92.90;94907.81;5050213;28;20205;-76
2022/03/02 09:21:43;;;;;;;30.30;17.53;;;;;;;2.07;93.11;94913.91;5049088;28;20204;-74
2022/03/02 09:24:14;;;;;;;32.00;17.60;;;;;;;2.17;92.32;94909.41;5049736;28;20201;-76
2022/03/02 09:26:43;;;;;;;37.57;20.57;;;;;;;2.29;91.27;94904.78;5049577;28;20198;-75
2022/03/02 09:29:10;;;;;;;35.30;19.57;;;;;;;2.36;90.35;94910.88;5049706;28;20209;-76
2022/03/02 09:31:44;;;;;;;34.20;19.07;;;;;;;2.49;89.20;94902.66;5049497;28;20239;-75
2022/03/02 09:34:15;;;;;;;34.83;18.83;;;;;;;2.60;87.73;94899.75;5049182;28;20251;-75
2022/03/02 09:36:44;;;;;;;31.43;17.07;;;;;;;2.59;87.19;94898.19;5049802;28;20626;-76
2022/03/02 09:39:13;;;;;;;30.13;17.20;;;;;;;2.31;86.11;94894.38;5049602;28;20213;-77
2022/03/02 09:41:49;;;;;;;30.13;16.50;;;;;;;2.06;87.38;94891.81;5049677;28;20209;-77
2022/03/02 09:44:21;;;;;;;29.87;17.47;;;;;;;1.90;88.36;94891.00;5049257;28;20193;-76
2022/03/02 09:46:52;;;;;;;29.97;16.37;;;;;;;2.13;87.59;94895.34;5049782;28;20709;-76
2022/03/02 09:49:22;;;;;;;28.97;16.83;;;;;;;2.65;86.60;94889.81;5052547;28;20205;-77
2022/03/02 09:51:54;;;;;;;31.90;17.00;;;;;;;3.18;84.93;94884.03;5053063;28;20583;-75
2022/03/02 09:54:25;;;;;;;29.70;16.33;;;;;;;3.63;82.58;94888.47;5053081;28;20194;-76
2022/03/02 09:56:56;;;;;;;38.93;18.27;;;;;;;3.94;81.66;94878.94;5053201;28;20679;-75
2022/03/02 09:59:26;;;;;;;27.37;15.17;;;;;;;4.22;77.26;94898.00;5052558;28;20198;-76
2022/03/02 10:01:54;;;;;;;27.43;15.20;;;;;;;4.46;76.26;94890.09;5052836;28;20197;-76
2022/03/02 10:04:23;;;;;;;30.57;16.77;;;;;;;4.48;74.06;94895.06;5052921;28;20206;-77
2022/03/02 10:07:26;;;;;;;27.47;15.53;;;;;;;4.23;75.09;94886.75;5053162;28;20201;-76
2022/03/02 10:09:51;;;;;;;26.33;15.23;;;;;;;4.12;75.12;94884.59;5047074;28;20206;-75
2022/03/02 10:12:22;;;;;;;26.00;13.67;;;;;;;3.98;75.55;94883.56;5046540;28;20221;-75
2022/03/02 10:14:50;;;;;;;31.40;17.33;;;;;;;4.10;76.94;94873.69;5052799;28;20206;-75
2022/03/02 10:17:21;;;;;;;28.77;16.57;;;;;;;4.57;75.35;94868.28;5052711;28;20213;-75
2022/03/02 10:19:55;;;;;;;28.57;16.80;;;;;;;5.17;74.60;94867.34;5053093;28;20206;-76
2022/03/02 10:22:39;;;;;;;30.27;16.37;;;;;;;5.49;72.13;94861.75;5053106;28;20205;-76
2022/03/02 10:25:12;;;;;;;25.73;14.80;;;;;;;5.06;71.69;94863.41;5054779;28;20213;-76
2022/03/02 10:27:53;;;;;;;25.50;14.83;;;;;;;4.88;72.18;94868.13;5051818;28;20201;-76
2022/03/02 10:30:24;;;;;;;32.03;16.60;;;;;;;5.15;72.08;94857.19;5052465;28;20593;-76
2022/03/02 10:32:59;;;;;;;29.20;15.97;;;;;;;5.73;71.94;94854.50;5052779;28;20202;-75
2022/03/02 10:35:35;;;;;;;24.83;15.60;;;;;;;5.89;68.36;94855.28;5045877;28;20239;-75
2022/03/02 10:38:06;;;;;;;25.87;16.07;;;;;;;5.92;68.24;94854.88;5052849;28;20195;-76
2022/03/02 10:40:38;;;;;;;32.70;19.07;;;;;;;6.24;69.05;94842.28;5052813;28;21158;-84
2022/03/02 10:43:12;;;;;;;28.80;17.87;;;;;;;6.61;68.44;94843.72;5053614;28;20296;-84
2022/03/02 10:45:44;;;;;;;29.73;13.87;;;;;;;6.72;65.26;94814.03;5053544;28;20618;-84
2022/03/02 10:48:14;;;;;;;26.53;15.83;;;;;;;6.43;66.09;94833.09;5054069;28;20176;-83
2022/03/02 10:50:46;;;;;;;22.70;14.43;;;;;;;6.23;66.47;94827.78;5053789;28;20226;-86
2022/03/02 10:53:21;;;;;;;33.03;17.23;;;;;;;5.99;66.97;94809.31;5053111;28;20286;-80
2022/03/02 10:55:50;;;;;;;31.10;16.27;;;;;;;6.58;66.69;94823.44;5052706;28;20242;-82
2022/03/02 10:58:19;;;;;;;32.10;19.13;;;;;;;7.09;65.54;94817.97;5045836;28;20205;-82
2022/03/02 11:00:49;;;;;;;27.00;15.83;;;;;;;7.25;63.98;94812.47;5046079;28;20209;-84
2022/03/02 11:03:17;;;;;;;28.17;16.77;;;;;;;7.51;63.28;94807.38;5041510;28;20275;-83
2022/03/02 11:05:44;;;;;;;28.53;16.67;;;;;;;7.83;62.53;94814.41;5052623;28;20209;-82
2022/03/02 11:08:11;;;;;;;27.63;17.13;;;;;;;7.83;62.50;94811.84;5053173;28;20202;-83
2022/03/02 11:10:39;;;;;;;24.90;14.67;;;;;;;8.13;60.94;94791.56;5052771;28;20222;-82
2022/03/02 11:13:11;;;;;;;22.90;14.00;;;;;;;8.37;61.29;94801.31;5052292;28;20719;-82
2022/03/02 11:15:47;;;;;;;24.40;16.13;;;;;;;8.24;59.71;94785.78;5053068;28;20207;-82
2022/03/02 11:18:17;;;;;;;33.87;18.50;;;;;;;8.16;61.22;94780.81;5052908;28;20201;-82
2022/03/02 11:20:53;;;;;;;28.73;15.33;;;;;;;8.54;59.74;94774.00;5052781;28;20293;-83
2022/03/02 11:23:23;;;;;;;27.33;14.63;;;;;;;8.74;58.70;94776.59;5052513;28;20612;-81
2022/03/02 11:25:52;;;;;;;27.73;16.30;;;;;;;8.77;56.34;94762.41;5052861;28;20678;-83
2022/03/02 11:28:22;;;;;;;26.47;15.80;;;;;;;9.48;56.88;94776.88;5052470;28;20650;-82
2022/03/02 11:30:54;;;;;;;30.03;18.60;;;;;;;9.27;53.09;94756.44;5046020;28;20272;-82
2022/03/02 11:33:29;;;;;;;20.70;13.33;;;;;;;9.24;51.20;94763.81;5046648;28;20206;-84